Aeroporto :
LOGIN :

Iscrizione | Disclaimer

   EN    FR    IT 

 










Sommario :    VFR   VFR Marginale   IFR   IFR Intensivo   IFR Molto Intensivo
Visibilità : 
Base nubi : 
>= 8 km
>= 3000ft
5 / 8 km
1000 / 3000 ft
1500m / 5 km
500 / 1000 ft
800 / 1500m
200 / 500 ft
< 800m
< 200 ft
Simboli :   Temporali  Nebbia  Neve Forte  Precipitazioni Forti  Vento > 20 kt
SIGMETs :   Varie  Temporali  Ghiacco  Turbolenza  Onda orograficha  Ceneri Vulcaniche






- Altitudine del aeroporto : 1363 ft


ETIC - Grafenwohr Army Air Field

ULTIMO METAR :
  • 131956Z AUTO 00000KT 9999 CLR 12/11 A3002 RMK AO2 SLP166 T01170109 $

METARs OBSOLETI :
  • 131856Z AUTO 00000KT 9999 CLR 12/11 A3000 RMK AO2 SLP163 T01190108 $
  • 131756Z AUTO 00000KT 9999 CLR 14/11 A3000 RMK AO2 SLP161 T01420108 10228 20142 53002 $

TAF TAF ETIC
Valido dal 13 a 14 ore il 14 a 20 ore UTC


131406Z 1314/1420 14006KT 9999 SKC QNH2999INS
BECMG 1315/1316 15008KT 9999 FEW070 SCT090 QNH2998INS
BECMG 1400/1401 15006KT 9999 SKC QNH2992INS TX25/1414Z TN07/1406Z



MetMap, La meteo Aeronautica in un colpo d'occhio ! - Copyright ORBIFLY Dicembre 2007 - Disclaimer

ORBIFLY MET'MAP TEAM :

Programmazione e sviluppo : Alexandra Zaïnal
Concezione e sviluppo : Baudouin d'Aumeries
Co-Programmazione e sviluppo : Marc-Olivier Méhu
Supporto tecnico e logistico : Manuel Goepfert
Aiuto per la traduzione : Arnaldo La Scala

Contatto : metmap@orbifly.com




FONTI E CREDITI :

   NOAA